sensor_id;sensor_type;location;lat;lon;timestamp;P1;durP1;ratioP1;P2;durP2;ratioP2
16346;SDS011;8283;48.504;13.734;2022-12-17T00:01:35;29.10;;;14.57;;
16346;SDS011;8283;48.504;13.734;2022-12-17T00:04:38;32.25;;;16.52;;
16346;SDS011;8283;48.504;13.734;2022-12-17T00:07:41;28.63;;;13.80;;
16346;SDS011;8283;48.504;13.734;2022-12-17T00:10:44;25.35;;;11.82;;
16346;SDS011;8283;48.504;13.734;2022-12-17T00:13:48;25.90;;;13.35;;
16346;SDS011;8283;48.504;13.734;2022-12-17T00:16:51;23.58;;;12.45;;
16346;SDS011;8283;48.504;13.734;2022-12-17T00:19:54;25.02;;;12.18;;
16346;SDS011;8283;48.504;13.734;2022-12-17T00:22:58;25.77;;;13.50;;
16346;SDS011;8283;48.504;13.734;2022-12-17T00:26:07;29.25;;;15.57;;
16346;SDS011;8283;48.504;13.734;2022-12-17T00:29:10;33.42;;;15.50;;
16346;SDS011;8283;48.504;13.734;2022-12-17T00:32:14;26.02;;;13.60;;
16346;SDS011;8283;48.504;13.734;2022-12-17T00:35:17;28.48;;;12.95;;
16346;SDS011;8283;48.504;13.734;2022-12-17T00:38:20;26.33;;;13.63;;
16346;SDS011;8283;48.504;13.734;2022-12-17T00:41:24;26.92;;;12.55;;
16346;SDS011;8283;48.504;13.734;2022-12-17T00:44:27;27.50;;;14.23;;
16346;SDS011;8283;48.504;13.734;2022-12-17T00:47:31;23.35;;;12.25;;
16346;SDS011;8283;48.504;13.734;2022-12-17T00:50:34;23.75;;;13.52;;
16346;SDS011;8283;48.504;13.734;2022-12-17T00:53:37;25.33;;;12.73;;
16346;SDS011;8283;48.504;13.734;2022-12-17T00:56:40;23.77;;;12.88;;
16346;SDS011;8283;48.504;13.734;2022-12-17T00:59:43;24.05;;;12.18;;
16346;SDS011;8283;48.504;13.734;2022-12-17T01:02:46;22.50;;;12.60;;
16346;SDS011;8283;48.504;13.734;2022-12-17T01:05:49;24.42;;;13.65;;
16346;SDS011;8283;48.504;13.734;2022-12-17T01:08:53;20.77;;;11.82;;
16346;SDS011;8283;48.504;13.734;2022-12-17T01:11:56;23.38;;;12.77;;
16346;SDS011;8283;48.504;13.734;2022-12-17T01:14:59;27.13;;;13.48;;
16346;SDS011;8283;48.504;13.734;2022-12-17T01:18:02;22.63;;;12.57;;
16346;SDS011;8283;48.504;13.734;2022-12-17T01:21:06;25.83;;;12.95;;
16346;SDS011;8283;48.504;13.734;2022-12-17T01:24:10;25.83;;;13.30;;
16346;SDS011;8283;48.504;13.734;2022-12-17T01:27:13;23.55;;;13.15;;
16346;SDS011;8283;48.504;13.734;2022-12-17T01:30:16;25.85;;;13.80;;
16346;SDS011;8283;48.504;13.734;2022-12-17T01:33:20;23.27;;;12.80;;
16346;SDS011;8283;48.504;13.734;2022-12-17T01:36:23;22.33;;;12.43;;
16346;SDS011;8283;48.504;13.734;2022-12-17T01:39:26;20.85;;;11.40;;
16346;SDS011;8283;48.504;13.734;2022-12-17T01:42:38;21.38;;;11.02;;
16346;SDS011;8283;48.504;13.734;2022-12-17T01:45:43;30.73;;;16.08;;
16346;SDS011;8283;48.504;13.734;2022-12-17T01:48:49;26.02;;;14.18;;
16346;SDS011;8283;48.504;13.734;2022-12-17T01:51:53;19.30;;;10.82;;
16346;SDS011;8283;48.504;13.734;2022-12-17T01:54:57;23.70;;;12.15;;
16346;SDS011;8283;48.504;13.734;2022-12-17T01:58:00;19.42;;;10.75;;
16346;SDS011;8283;48.504;13.734;2022-12-17T02:01:05;22.30;;;12.60;;
16346;SDS011;8283;48.504;13.734;2022-12-17T02:04:08;24.75;;;12.48;;
16346;SDS011;8283;48.504;13.734;2022-12-17T02:07:19;19.92;;;11.23;;
16346;SDS011;8283;48.504;13.734;2022-12-17T02:13:58;22.40;;;12.07;;
16346;SDS011;8283;48.504;13.734;2022-12-17T02:17:10;20.52;;;11.43;;
16346;SDS011;8283;48.504;13.734;2022-12-17T02:20:26;26.45;;;12.75;;
16346;SDS011;8283;48.504;13.734;2022-12-17T02:23:43;21.90;;;12.10;;
16346;SDS011;8283;48.504;13.734;2022-12-17T02:26:57;25.02;;;12.80;;
16346;SDS011;8283;48.504;13.734;2022-12-17T02:30:06;25.33;;;12.80;;
16346;SDS011;8283;48.504;13.734;2022-12-17T02:33:10;26.20;;;13.23;;
16346;SDS011;8283;48.504;13.734;2022-12-17T02:36:14;20.88;;;11.27;;
16346;SDS011;8283;48.504;13.734;2022-12-17T02:39:17;23.38;;;12.23;;
16346;SDS011;8283;48.504;13.734;2022-12-17T02:42:21;28.00;;;14.80;;
16346;SDS011;8283;48.504;13.734;2022-12-17T02:45:28;27.85;;;14.52;;
16346;SDS011;8283;48.504;13.734;2022-12-17T02:48:36;31.67;;;16.40;;
16346;SDS011;8283;48.504;13.734;2022-12-17T02:51:39;30.70;;;14.63;;
16346;SDS011;8283;48.504;13.734;2022-12-17T02:54:43;30.38;;;16.63;;
16346;SDS011;8283;48.504;13.734;2022-12-17T02:57:51;28.42;;;15.38;;
16346;SDS011;8283;48.504;13.734;2022-12-17T03:00:54;35.90;;;17.63;;
16346;SDS011;8283;48.504;13.734;2022-12-17T03:03:58;30.42;;;15.65;;
16346;SDS011;8283;48.504;13.734;2022-12-17T03:07:05;33.63;;;15.48;;
16346;SDS011;8283;48.504;13.734;2022-12-17T03:10:08;31.20;;;15.45;;
16346;SDS011;8283;48.504;13.734;2022-12-17T03:13:22;27.98;;;13.88;;
16346;SDS011;8283;48.504;13.734;2022-12-17T03:16:27;25.77;;;11.98;;
16346;SDS011;8283;48.504;13.734;2022-12-17T03:19:30;28.00;;;13.77;;
16346;SDS011;8283;48.504;13.734;2022-12-17T03:22:33;24.65;;;13.30;;
16346;SDS011;8283;48.504;13.734;2022-12-17T03:25:36;27.95;;;14.40;;
16346;SDS011;8283;48.504;13.734;2022-12-17T03:28:39;30.05;;;15.55;;
16346;SDS011;8283;48.504;13.734;2022-12-17T03:31:42;25.55;;;12.85;;
16346;SDS011;8283;48.504;13.734;2022-12-17T03:34:45;28.02;;;13.93;;
16346;SDS011;8283;48.504;13.734;2022-12-17T03:37:49;30.92;;;17.40;;
16346;SDS011;8283;48.504;13.734;2022-12-17T03:40:52;30.50;;;16.48;;
16346;SDS011;8283;48.504;13.734;2022-12-17T03:43:55;26.75;;;15.02;;
16346;SDS011;8283;48.504;13.734;2022-12-17T03:46:59;31.52;;;15.32;;
16346;SDS011;8283;48.504;13.734;2022-12-17T03:50:04;30.60;;;14.93;;
16346;SDS011;8283;48.504;13.734;2022-12-17T03:53:07;29.42;;;14.60;;
16346;SDS011;8283;48.504;13.734;2022-12-17T03:56:10;32.45;;;16.50;;
16346;SDS011;8283;48.504;13.734;2022-12-17T03:59:13;24.35;;;14.70;;
16346;SDS011;8283;48.504;13.734;2022-12-17T04:02:17;26.15;;;15.00;;
16346;SDS011;8283;48.504;13.734;2022-12-17T04:05:20;25.20;;;14.52;;
16346;SDS011;8283;48.504;13.734;2022-12-17T04:08:23;22.52;;;11.65;;
16346;SDS011;8283;48.504;13.734;2022-12-17T04:11:26;20.90;;;12.88;;
16346;SDS011;8283;48.504;13.734;2022-12-17T04:14:29;22.42;;;12.65;;
16346;SDS011;8283;48.504;13.734;2022-12-17T04:17:33;19.98;;;11.95;;
16346;SDS011;8283;48.504;13.734;2022-12-17T04:20:36;19.65;;;11.52;;
16346;SDS011;8283;48.504;13.734;2022-12-17T04:23:39;22.00;;;12.73;;
16346;SDS011;8283;48.504;13.734;2022-12-17T04:26:43;22.95;;;12.43;;
16346;SDS011;8283;48.504;13.734;2022-12-17T04:29:46;25.17;;;14.55;;
16346;SDS011;8283;48.504;13.734;2022-12-17T04:32:49;24.02;;;13.88;;
16346;SDS011;8283;48.504;13.734;2022-12-17T04:35:52;22.23;;;12.95;;
16346;SDS011;8283;48.504;13.734;2022-12-17T04:38:55;27.65;;;12.77;;
16346;SDS011;8283;48.504;13.734;2022-12-17T04:41:58;21.23;;;11.73;;
16346;SDS011;8283;48.504;13.734;2022-12-17T04:45:02;20.20;;;12.60;;
16346;SDS011;8283;48.504;13.734;2022-12-17T04:48:06;25.92;;;12.10;;
16346;SDS011;8283;48.504;13.734;2022-12-17T04:51:10;18.73;;;11.70;;
16346;SDS011;8283;48.504;13.734;2022-12-17T04:54:14;24.33;;;10.80;;
16346;SDS011;8283;48.504;13.734;2022-12-17T04:57:17;23.17;;;13.70;;
16346;SDS011;8283;48.504;13.734;2022-12-17T05:00:20;25.73;;;13.38;;
16346;SDS011;8283;48.504;13.734;2022-12-17T05:03:23;28.00;;;14.10;;
16346;SDS011;8283;48.504;13.734;2022-12-17T05:06:27;24.90;;;13.90;;
16346;SDS011;8283;48.504;13.734;2022-12-17T05:09:30;24.33;;;12.77;;
16346;SDS011;8283;48.504;13.734;2022-12-17T05:12:33;20.77;;;12.70;;
16346;SDS011;8283;48.504;13.734;2022-12-17T05:15:37;18.42;;;11.15;;
16346;SDS011;8283;48.504;13.734;2022-12-17T05:18:40;24.67;;;13.52;;
16346;SDS011;8283;48.504;13.734;2022-12-17T05:21:44;20.73;;;11.38;;
16346;SDS011;8283;48.504;13.734;2022-12-17T05:24:47;21.25;;;11.75;;
16346;SDS011;8283;48.504;13.734;2022-12-17T05:27:51;23.65;;;13.77;;
16346;SDS011;8283;48.504;13.734;2022-12-17T05:30:54;30.27;;;16.00;;
16346;SDS011;8283;48.504;13.734;2022-12-17T05:33:58;23.38;;;12.90;;
16346;SDS011;8283;48.504;13.734;2022-12-17T05:37:01;20.92;;;11.57;;
16346;SDS011;8283;48.504;13.734;2022-12-17T05:40:04;26.05;;;13.50;;
16346;SDS011;8283;48.504;13.734;2022-12-17T05:43:11;23.33;;;13.57;;
16346;SDS011;8283;48.504;13.734;2022-12-17T05:46:15;24.60;;;13.48;;
16346;SDS011;8283;48.504;13.734;2022-12-17T05:49:18;22.58;;;13.18;;
16346;SDS011;8283;48.504;13.734;2022-12-17T05:52:21;25.33;;;14.30;;
16346;SDS011;8283;48.504;13.734;2022-12-17T05:55:24;23.60;;;13.57;;
16346;SDS011;8283;48.504;13.734;2022-12-17T05:58:28;25.17;;;14.98;;
16346;SDS011;8283;48.504;13.734;2022-12-17T06:01:31;23.70;;;12.85;;
16346;SDS011;8283;48.504;13.734;2022-12-17T06:04:34;21.23;;;11.75;;
16346;SDS011;8283;48.504;13.734;2022-12-17T06:07:37;17.35;;;10.50;;
16346;SDS011;8283;48.504;13.734;2022-12-17T06:10:40;20.20;;;12.63;;
16346;SDS011;8283;48.504;13.734;2022-12-17T06:13:44;21.35;;;11.95;;
16346;SDS011;8283;48.504;13.734;2022-12-17T06:16:48;23.02;;;12.93;;
16346;SDS011;8283;48.504;13.734;2022-12-17T06:19:51;21.20;;;12.25;;
16346;SDS011;8283;48.504;13.734;2022-12-17T06:23:01;25.27;;;13.65;;
16346;SDS011;8283;48.504;13.734;2022-12-17T06:26:07;21.63;;;11.63;;
16346;SDS011;8283;48.504;13.734;2022-12-17T06:29:11;23.23;;;11.70;;
16346;SDS011;8283;48.504;13.734;2022-12-17T06:32:14;24.83;;;12.73;;
16346;SDS011;8283;48.504;13.734;2022-12-17T06:35:17;21.83;;;12.63;;
16346;SDS011;8283;48.504;13.734;2022-12-17T06:38:20;23.80;;;13.35;;
16346;SDS011;8283;48.504;13.734;2022-12-17T06:41:24;25.63;;;13.98;;
16346;SDS011;8283;48.504;13.734;2022-12-17T06:44:27;21.13;;;12.57;;
16346;SDS011;8283;48.504;13.734;2022-12-17T06:47:30;26.63;;;13.73;;
16346;SDS011;8283;48.504;13.734;2022-12-17T06:50:33;22.50;;;12.38;;
16346;SDS011;8283;48.504;13.734;2022-12-17T06:53:36;24.45;;;13.52;;
16346;SDS011;8283;48.504;13.734;2022-12-17T06:56:39;23.35;;;13.57;;
16346;SDS011;8283;48.504;13.734;2022-12-17T06:59:43;26.52;;;13.27;;
16346;SDS011;8283;48.504;13.734;2022-12-17T07:02:46;27.63;;;14.43;;
16346;SDS011;8283;48.504;13.734;2022-12-17T07:05:49;25.70;;;13.15;;
16346;SDS011;8283;48.504;13.734;2022-12-17T07:08:53;23.17;;;13.63;;
16346;SDS011;8283;48.504;13.734;2022-12-17T07:11:56;22.75;;;11.90;;
16346;SDS011;8283;48.504;13.734;2022-12-17T07:14:59;25.92;;;12.60;;
16346;SDS011;8283;48.504;13.734;2022-12-17T07:18:02;23.50;;;13.95;;
16346;SDS011;8283;48.504;13.734;2022-12-17T07:21:06;28.52;;;15.55;;
16346;SDS011;8283;48.504;13.734;2022-12-17T07:24:09;24.70;;;13.48;;
16346;SDS011;8283;48.504;13.734;2022-12-17T07:27:12;29.02;;;14.23;;
16346;SDS011;8283;48.504;13.734;2022-12-17T07:30:16;28.55;;;14.80;;
16346;SDS011;8283;48.504;13.734;2022-12-17T07:33:19;20.00;;;10.68;;
16346;SDS011;8283;48.504;13.734;2022-12-17T07:36:22;20.88;;;11.82;;
16346;SDS011;8283;48.504;13.734;2022-12-17T07:39:25;25.17;;;12.68;;
16346;SDS011;8283;48.504;13.734;2022-12-17T07:42:29;18.65;;;11.45;;
16346;SDS011;8283;48.504;13.734;2022-12-17T07:45:32;28.08;;;15.65;;
16346;SDS011;8283;48.504;13.734;2022-12-17T07:48:35;32.00;;;16.27;;
16346;SDS011;8283;48.504;13.734;2022-12-17T07:51:39;32.20;;;16.13;;
16346;SDS011;8283;48.504;13.734;2022-12-17T07:54:43;26.25;;;14.05;;
16346;SDS011;8283;48.504;13.734;2022-12-17T07:57:46;25.45;;;13.85;;
16346;SDS011;8283;48.504;13.734;2022-12-17T08:00:49;26.63;;;14.32;;
16346;SDS011;8283;48.504;13.734;2022-12-17T08:03:52;29.52;;;15.65;;
16346;SDS011;8283;48.504;13.734;2022-12-17T08:06:56;26.38;;;13.73;;
16346;SDS011;8283;48.504;13.734;2022-12-17T08:09:59;32.25;;;16.88;;
16346;SDS011;8283;48.504;13.734;2022-12-17T08:13:04;29.48;;;14.40;;
16346;SDS011;8283;48.504;13.734;2022-12-17T08:16:07;32.50;;;16.02;;
16346;SDS011;8283;48.504;13.734;2022-12-17T08:19:10;24.33;;;14.57;;
16346;SDS011;8283;48.504;13.734;2022-12-17T08:22:13;26.67;;;14.60;;
16346;SDS011;8283;48.504;13.734;2022-12-17T08:25:16;26.13;;;12.90;;
16346;SDS011;8283;48.504;13.734;2022-12-17T08:28:19;22.20;;;12.07;;
16346;SDS011;8283;48.504;13.734;2022-12-17T08:31:22;20.45;;;12.10;;
16346;SDS011;8283;48.504;13.734;2022-12-17T08:34:26;25.63;;;14.15;;
16346;SDS011;8283;48.504;13.734;2022-12-17T08:37:29;24.08;;;15.00;;
16346;SDS011;8283;48.504;13.734;2022-12-17T08:40:32;25.50;;;13.45;;
16346;SDS011;8283;48.504;13.734;2022-12-17T08:43:36;23.30;;;13.25;;
16346;SDS011;8283;48.504;13.734;2022-12-17T08:46:39;29.92;;;14.65;;
16346;SDS011;8283;48.504;13.734;2022-12-17T08:49:42;23.10;;;12.13;;
16346;SDS011;8283;48.504;13.734;2022-12-17T08:52:45;25.27;;;12.10;;
16346;SDS011;8283;48.504;13.734;2022-12-17T08:55:49;24.15;;;13.27;;
16346;SDS011;8283;48.504;13.734;2022-12-17T08:58:52;26.98;;;12.90;;
16346;SDS011;8283;48.504;13.734;2022-12-17T09:01:55;32.45;;;16.38;;
16346;SDS011;8283;48.504;13.734;2022-12-17T09:04:58;23.17;;;13.45;;
16346;SDS011;8283;48.504;13.734;2022-12-17T09:08:05;27.30;;;13.52;;
16346;SDS011;8283;48.504;13.734;2022-12-17T09:11:08;18.42;;;11.20;;
16346;SDS011;8283;48.504;13.734;2022-12-17T09:14:11;28.38;;;15.07;;
16346;SDS011;8283;48.504;13.734;2022-12-17T09:17:14;27.58;;;14.55;;
16346;SDS011;8283;48.504;13.734;2022-12-17T09:20:18;28.58;;;13.52;;
16346;SDS011;8283;48.504;13.734;2022-12-17T09:23:21;24.10;;;13.90;;
16346;SDS011;8283;48.504;13.734;2022-12-17T09:26:25;19.05;;;10.65;;
16346;SDS011;8283;48.504;13.734;2022-12-17T09:29:28;24.33;;;13.73;;
16346;SDS011;8283;48.504;13.734;2022-12-17T09:32:31;20.45;;;11.73;;
16346;SDS011;8283;48.504;13.734;2022-12-17T09:35:36;21.05;;;12.50;;
16346;SDS011;8283;48.504;13.734;2022-12-17T09:38:40;21.17;;;11.82;;
16346;SDS011;8283;48.504;13.734;2022-12-17T09:48:25;23.17;;;11.63;;
16346;SDS011;8283;48.504;13.734;2022-12-17T09:51:51;20.38;;;11.40;;
16346;SDS011;8283;48.504;13.734;2022-12-17T09:54:54;20.38;;;10.77;;
16346;SDS011;8283;48.504;13.734;2022-12-17T09:57:57;21.48;;;12.00;;
16346;SDS011;8283;48.504;13.734;2022-12-17T10:01:01;30.33;;;15.63;;
16346;SDS011;8283;48.504;13.734;2022-12-17T10:04:11;26.40;;;14.27;;
16346;SDS011;8283;48.504;13.734;2022-12-17T10:07:21;28.25;;;14.57;;
16346;SDS011;8283;48.504;13.734;2022-12-17T10:10:29;21.83;;;12.40;;
16346;SDS011;8283;48.504;13.734;2022-12-17T10:13:34;27.67;;;14.77;;
16346;SDS011;8283;48.504;13.734;2022-12-17T10:16:38;20.25;;;12.95;;
16346;SDS011;8283;48.504;13.734;2022-12-17T10:19:48;21.70;;;12.68;;
16346;SDS011;8283;48.504;13.734;2022-12-17T10:22:53;25.52;;;14.45;;
16346;SDS011;8283;48.504;13.734;2022-12-17T10:25:56;22.73;;;11.38;;
16346;SDS011;8283;48.504;13.734;2022-12-17T10:29:03;25.98;;;15.45;;
16346;SDS011;8283;48.504;13.734;2022-12-17T10:35:25;22.95;;;12.77;;
16346;SDS011;8283;48.504;13.734;2022-12-17T10:38:36;30.55;;;15.63;;
16346;SDS011;8283;48.504;13.734;2022-12-17T10:41:40;24.08;;;13.85;;
16346;SDS011;8283;48.504;13.734;2022-12-17T10:44:44;26.95;;;14.55;;
16346;SDS011;8283;48.504;13.734;2022-12-17T10:47:47;31.40;;;17.20;;
16346;SDS011;8283;48.504;13.734;2022-12-17T10:50:51;28.45;;;16.10;;
16346;SDS011;8283;48.504;13.734;2022-12-17T10:53:54;26.25;;;15.18;;
16346;SDS011;8283;48.504;13.734;2022-12-17T10:57:07;23.20;;;12.55;;
16346;SDS011;8283;48.504;13.734;2022-12-17T11:03:49;28.75;;;14.02;;
16346;SDS011;8283;48.504;13.734;2022-12-17T11:06:55;25.67;;;13.52;;
16346;SDS011;8283;48.504;13.734;2022-12-17T11:09:59;32.53;;;16.63;;
16346;SDS011;8283;48.504;13.734;2022-12-17T11:13:06;23.65;;;12.73;;
16346;SDS011;8283;48.504;13.734;2022-12-17T11:16:19;40.47;;;17.85;;
16346;SDS011;8283;48.504;13.734;2022-12-17T11:19:55;26.55;;;14.65;;
16346;SDS011;8283;48.504;13.734;2022-12-17T11:23:03;31.27;;;14.82;;
16346;SDS011;8283;48.504;13.734;2022-12-17T11:26:09;32.25;;;15.30;;
16346;SDS011;8283;48.504;13.734;2022-12-17T11:29:14;30.35;;;14.65;;
16346;SDS011;8283;48.504;13.734;2022-12-17T11:32:22;33.90;;;17.05;;
16346;SDS011;8283;48.504;13.734;2022-12-17T11:39:11;26.88;;;14.32;;
16346;SDS011;8283;48.504;13.734;2022-12-17T11:42:23;30.50;;;15.38;;
16346;SDS011;8283;48.504;13.734;2022-12-17T11:48:50;28.27;;;14.05;;
16346;SDS011;8283;48.504;13.734;2022-12-17T11:59:04;27.08;;;15.02;;
16346;SDS011;8283;48.504;13.734;2022-12-17T12:05:59;30.45;;;15.05;;
16346;SDS011;8283;48.504;13.734;2022-12-17T12:16:21;29.23;;;13.23;;
16346;SDS011;8283;48.504;13.734;2022-12-17T12:19:23;23.05;;;12.23;;
16346;SDS011;8283;48.504;13.734;2022-12-17T12:22:55;24.35;;;12.43;;
16346;SDS011;8283;48.504;13.734;2022-12-17T12:26:15;21.15;;;11.15;;
16346;SDS011;8283;48.504;13.734;2022-12-17T12:29:28;24.55;;;12.20;;
16346;SDS011;8283;48.504;13.734;2022-12-17T12:32:43;27.50;;;14.40;;
16346;SDS011;8283;48.504;13.734;2022-12-17T12:35:57;23.77;;;12.27;;
16346;SDS011;8283;48.504;13.734;2022-12-17T12:39:03;25.13;;;13.48;;
16346;SDS011;8283;48.504;13.734;2022-12-17T12:45:49;25.98;;;14.02;;
16346;SDS011;8283;48.504;13.734;2022-12-17T12:49:03;26.83;;;14.80;;
16346;SDS011;8283;48.504;13.734;2022-12-17T12:52:17;30.88;;;15.05;;
16346;SDS011;8283;48.504;13.734;2022-12-17T12:55:34;33.67;;;16.83;;
16346;SDS011;8283;48.504;13.734;2022-12-17T12:58:39;28.88;;;15.68;;
16346;SDS011;8283;48.504;13.734;2022-12-17T13:01:47;35.60;;;18.13;;
16346;SDS011;8283;48.504;13.734;2022-12-17T13:04:51;25.67;;;13.55;;
16346;SDS011;8283;48.504;13.734;2022-12-17T13:10:52;22.17;;;11.60;;
16346;SDS011;8283;48.504;13.734;2022-12-17T13:13:41;26.50;;;13.82;;
16346;SDS011;8283;48.504;13.734;2022-12-17T13:26:09;23.73;;;11.85;;
16346;SDS011;8283;48.504;13.734;2022-12-17T13:28:59;24.70;;;13.55;;
16346;SDS011;8283;48.504;13.734;2022-12-17T13:32:14;25.75;;;12.55;;
16346;SDS011;8283;48.504;13.734;2022-12-17T13:41:31;24.33;;;13.98;;
16346;SDS011;8283;48.504;13.734;2022-12-17T13:44:17;24.02;;;13.80;;
16346;SDS011;8283;48.504;13.734;2022-12-17T13:47:16;22.95;;;12.40;;
16346;SDS011;8283;48.504;13.734;2022-12-17T13:50:17;23.15;;;12.55;;
16346;SDS011;8283;48.504;13.734;2022-12-17T13:53:07;29.92;;;14.40;;
16346;SDS011;8283;48.504;13.734;2022-12-17T13:55:54;29.30;;;14.20;;
16346;SDS011;8283;48.504;13.734;2022-12-17T13:58:41;31.73;;;16.05;;
16346;SDS011;8283;48.504;13.734;2022-12-17T14:01:25;25.23;;;13.13;;
16346;SDS011;8283;48.504;13.734;2022-12-17T14:04:17;24.42;;;13.55;;
16346;SDS011;8283;48.504;13.734;2022-12-17T14:07:07;39.30;;;20.63;;
16346;SDS011;8283;48.504;13.734;2022-12-17T14:09:54;31.17;;;17.13;;
16346;SDS011;8283;48.504;13.734;2022-12-17T14:12:39;30.30;;;16.83;;
16346;SDS011;8283;48.504;13.734;2022-12-17T14:15:24;29.15;;;15.50;;
16346;SDS011;8283;48.504;13.734;2022-12-17T14:18:13;25.85;;;13.88;;
16346;SDS011;8283;48.504;13.734;2022-12-17T14:21:01;24.98;;;13.48;;
16346;SDS011;8283;48.504;13.734;2022-12-17T14:23:47;26.25;;;14.40;;
16346;SDS011;8283;48.504;13.734;2022-12-17T14:26:33;30.40;;;14.98;;
16346;SDS011;8283;48.504;13.734;2022-12-17T14:29:21;23.35;;;12.45;;
16346;SDS011;8283;48.504;13.734;2022-12-17T14:32:20;28.25;;;15.52;;
16346;SDS011;8283;48.504;13.734;2022-12-17T14:35:35;21.10;;;13.15;;
16346;SDS011;8283;48.504;13.734;2022-12-17T14:38:22;24.73;;;13.00;;
16346;SDS011;8283;48.504;13.734;2022-12-17T14:41:11;23.42;;;13.27;;
16346;SDS011;8283;48.504;13.734;2022-12-17T14:44:18;25.48;;;13.43;;
16346;SDS011;8283;48.504;13.734;2022-12-17T14:47:06;27.33;;;13.30;;
16346;SDS011;8283;48.504;13.734;2022-12-17T14:55:29;24.08;;;12.93;;
16346;SDS011;8283;48.504;13.734;2022-12-17T14:58:20;30.85;;;14.88;;
16346;SDS011;8283;48.504;13.734;2022-12-17T15:01:07;21.55;;;11.98;;
16346;SDS011;8283;48.504;13.734;2022-12-17T15:03:55;26.83;;;12.95;;
16346;SDS011;8283;48.504;13.734;2022-12-17T15:06:40;24.17;;;11.93;;
16346;SDS011;8283;48.504;13.734;2022-12-17T15:09:24;18.40;;;11.52;;
16346;SDS011;8283;48.504;13.734;2022-12-17T15:12:08;30.98;;;16.65;;
16346;SDS011;8283;48.504;13.734;2022-12-17T15:14:53;22.42;;;12.88;;
16346;SDS011;8283;48.504;13.734;2022-12-17T15:17:38;24.85;;;12.77;;
16346;SDS011;8283;48.504;13.734;2022-12-17T15:20:25;21.70;;;11.70;;
16346;SDS011;8283;48.504;13.734;2022-12-17T15:23:16;21.70;;;11.00;;
16346;SDS011;8283;48.504;13.734;2022-12-17T15:26:02;21.92;;;11.65;;
16346;SDS011;8283;48.504;13.734;2022-12-17T15:28:48;22.92;;;12.65;;
16346;SDS011;8283;48.504;13.734;2022-12-17T15:31:33;19.02;;;10.85;;
16346;SDS011;8283;48.504;13.734;2022-12-17T15:34:17;19.65;;;12.10;;
16346;SDS011;8283;48.504;13.734;2022-12-17T15:37:01;17.73;;;9.95;;
16346;SDS011;8283;48.504;13.734;2022-12-17T15:39:46;19.60;;;9.85;;
16346;SDS011;8283;48.504;13.734;2022-12-17T15:42:31;21.67;;;11.00;;
16346;SDS011;8283;48.504;13.734;2022-12-17T15:45:34;16.17;;;9.40;;
16346;SDS011;8283;48.504;13.734;2022-12-17T15:48:19;16.90;;;10.75;;
16346;SDS011;8283;48.504;13.734;2022-12-17T15:51:05;17.10;;;9.85;;
16346;SDS011;8283;48.504;13.734;2022-12-17T15:53:50;19.25;;;11.13;;
16346;SDS011;8283;48.504;13.734;2022-12-17T15:56:34;18.52;;;9.95;;
16346;SDS011;8283;48.504;13.734;2022-12-17T15:59:19;15.95;;;10.10;;
16346;SDS011;8283;48.504;13.734;2022-12-17T16:02:05;16.33;;;9.98;;
16346;SDS011;8283;48.504;13.734;2022-12-17T16:04:49;18.05;;;11.43;;
16346;SDS011;8283;48.504;13.734;2022-12-17T16:07:35;22.45;;;12.50;;
16346;SDS011;8283;48.504;13.734;2022-12-17T16:10:21;20.08;;;10.77;;
16346;SDS011;8283;48.504;13.734;2022-12-17T16:13:05;20.77;;;10.57;;
16346;SDS011;8283;48.504;13.734;2022-12-17T16:15:55;18.15;;;10.63;;
16346;SDS011;8283;48.504;13.734;2022-12-17T16:18:40;23.55;;;12.35;;
16346;SDS011;8283;48.504;13.734;2022-12-17T16:21:25;21.50;;;10.98;;
16346;SDS011;8283;48.504;13.734;2022-12-17T16:24:09;22.80;;;12.30;;
16346;SDS011;8283;48.504;13.734;2022-12-17T16:26:54;20.45;;;11.23;;
16346;SDS011;8283;48.504;13.734;2022-12-17T16:29:39;22.17;;;12.73;;
16346;SDS011;8283;48.504;13.734;2022-12-17T16:32:23;22.45;;;11.80;;
16346;SDS011;8283;48.504;13.734;2022-12-17T16:35:08;22.90;;;11.90;;
16346;SDS011;8283;48.504;13.734;2022-12-17T16:37:53;17.80;;;10.68;;
16346;SDS011;8283;48.504;13.734;2022-12-17T16:40:37;18.58;;;9.68;;
16346;SDS011;8283;48.504;13.734;2022-12-17T16:43:22;21.23;;;10.98;;
16346;SDS011;8283;48.504;13.734;2022-12-17T16:46:43;19.60;;;11.07;;
16346;SDS011;8283;48.504;13.734;2022-12-17T16:49:22;16.42;;;8.75;;
16346;SDS011;8283;48.504;13.734;2022-12-17T16:52:07;15.60;;;8.40;;
16346;SDS011;8283;48.504;13.734;2022-12-17T16:54:51;20.67;;;11.25;;
16346;SDS011;8283;48.504;13.734;2022-12-17T16:57:35;19.95;;;9.90;;
16346;SDS011;8283;48.504;13.734;2022-12-17T17:00:20;16.33;;;8.77;;
16346;SDS011;8283;48.504;13.734;2022-12-17T17:03:05;16.02;;;9.63;;
16346;SDS011;8283;48.504;13.734;2022-12-17T17:05:50;16.73;;;9.38;;
16346;SDS011;8283;48.504;13.734;2022-12-17T17:08:35;17.13;;;9.35;;
16346;SDS011;8283;48.504;13.734;2022-12-17T17:11:22;14.52;;;8.98;;
16346;SDS011;8283;48.504;13.734;2022-12-17T17:14:08;17.83;;;9.57;;
16346;SDS011;8283;48.504;13.734;2022-12-17T17:16:53;15.40;;;8.50;;
16346;SDS011;8283;48.504;13.734;2022-12-17T17:19:37;19.13;;;9.65;;
16346;SDS011;8283;48.504;13.734;2022-12-17T17:22:21;18.52;;;9.80;;
16346;SDS011;8283;48.504;13.734;2022-12-17T17:25:06;19.08;;;9.77;;
16346;SDS011;8283;48.504;13.734;2022-12-17T17:27:51;16.15;;;9.55;;
16346;SDS011;8283;48.504;13.734;2022-12-17T17:30:36;14.85;;;8.63;;
16346;SDS011;8283;48.504;13.734;2022-12-17T17:33:20;19.10;;;9.63;;
16346;SDS011;8283;48.504;13.734;2022-12-17T17:36:05;16.95;;;9.20;;
16346;SDS011;8283;48.504;13.734;2022-12-17T17:38:51;15.30;;;8.50;;
16346;SDS011;8283;48.504;13.734;2022-12-17T17:41:36;14.10;;;8.15;;
16346;SDS011;8283;48.504;13.734;2022-12-17T17:44:21;12.50;;;7.85;;
16346;SDS011;8283;48.504;13.734;2022-12-17T17:47:06;16.20;;;8.48;;
16346;SDS011;8283;48.504;13.734;2022-12-17T17:49:50;17.88;;;9.60;;
16346;SDS011;8283;48.504;13.734;2022-12-17T17:52:36;18.50;;;10.35;;
16346;SDS011;8283;48.504;13.734;2022-12-17T17:55:20;16.23;;;9.20;;
16346;SDS011;8283;48.504;13.734;2022-12-17T17:58:05;18.52;;;10.13;;
16346;SDS011;8283;48.504;13.734;2022-12-17T18:00:49;13.27;;;8.60;;
16346;SDS011;8283;48.504;13.734;2022-12-17T18:03:34;15.43;;;9.00;;
16346;SDS011;8283;48.504;13.734;2022-12-17T18:06:20;15.00;;;9.05;;
16346;SDS011;8283;48.504;13.734;2022-12-17T18:09:05;16.23;;;8.48;;
16346;SDS011;8283;48.504;13.734;2022-12-17T18:11:50;14.98;;;8.32;;
16346;SDS011;8283;48.504;13.734;2022-12-17T18:14:34;16.42;;;8.48;;
16346;SDS011;8283;48.504;13.734;2022-12-17T18:17:19;15.05;;;8.80;;
16346;SDS011;8283;48.504;13.734;2022-12-17T18:20:04;16.60;;;9.27;;
16346;SDS011;8283;48.504;13.734;2022-12-17T18:22:49;16.25;;;8.77;;
16346;SDS011;8283;48.504;13.734;2022-12-17T18:25:33;16.65;;;8.77;;
16346;SDS011;8283;48.504;13.734;2022-12-17T18:28:18;18.75;;;8.88;;
16346;SDS011;8283;48.504;13.734;2022-12-17T18:31:06;27.08;;;13.25;;
16346;SDS011;8283;48.504;13.734;2022-12-17T18:33:54;18.35;;;10.55;;
16346;SDS011;8283;48.504;13.734;2022-12-17T18:36:43;17.17;;;10.63;;
16346;SDS011;8283;48.504;13.734;2022-12-17T18:39:28;16.23;;;9.85;;
16346;SDS011;8283;48.504;13.734;2022-12-17T18:42:12;17.42;;;8.73;;